sensor_id;sensor_type;location;lat;lon;timestamp;temperature;humidity
2010;DHT22;1008;47.404;8.502;2022-12-07T00:01:21;4.00;99.90
2010;DHT22;1008;47.404;8.502;2022-12-07T00:03:49;4.00;99.90
2010;DHT22;1008;47.404;8.502;2022-12-07T00:06:19;4.00;99.90
2010;DHT22;1008;47.404;8.502;2022-12-07T00:08:47;3.90;99.90
2010;DHT22;1008;47.404;8.502;2022-12-07T00:11:15;3.90;99.90
2010;DHT22;1008;47.404;8.502;2022-12-07T00:13:43;3.80;99.90
2010;DHT22;1008;47.404;8.502;2022-12-07T00:16:12;3.70;99.90
2010;DHT22;1008;47.404;8.502;2022-12-07T00:18:39;3.80;99.90
2010;DHT22;1008;47.404;8.502;2022-12-07T00:21:10;3.90;99.90
2010;DHT22;1008;47.404;8.502;2022-12-07T00:23:39;3.70;99.90
2010;DHT22;1008;47.404;8.502;2022-12-07T00:26:08;3.80;99.90
2010;DHT22;1008;47.404;8.502;2022-12-07T00:28:35;3.80;99.90
2010;DHT22;1008;47.404;8.502;2022-12-07T00:31:04;3.70;99.90
2010;DHT22;1008;47.404;8.502;2022-12-07T00:33:31;3.70;99.90
2010;DHT22;1008;47.404;8.502;2022-12-07T00:35:59;3.60;99.90
2010;DHT22;1008;47.404;8.502;2022-12-07T00:38:28;3.70;99.90
2010;DHT22;1008;47.404;8.502;2022-12-07T00:40:57;3.80;99.90
2010;DHT22;1008;47.404;8.502;2022-12-07T00:43:24;3.80;99.90
2010;DHT22;1008;47.404;8.502;2022-12-07T00:45:52;3.80;99.90
2010;DHT22;1008;47.404;8.502;2022-12-07T00:48:18;3.80;99.90
2010;DHT22;1008;47.404;8.502;2022-12-07T00:50:45;3.80;99.90
2010;DHT22;1008;47.404;8.502;2022-12-07T00:53:12;3.70;99.90
2010;DHT22;1008;47.404;8.502;2022-12-07T00:55:39;3.90;99.90
2010;DHT22;1008;47.404;8.502;2022-12-07T00:58:07;3.80;99.90
2010;DHT22;1008;47.404;8.502;2022-12-07T01:00:36;3.80;99.90
2010;DHT22;1008;47.404;8.502;2022-12-07T01:03:03;3.80;99.90
2010;DHT22;1008;47.404;8.502;2022-12-07T01:05:30;4.00;99.90
2010;DHT22;1008;47.404;8.502;2022-12-07T01:07:57;4.00;99.90
2010;DHT22;1008;47.404;8.502;2022-12-07T01:10:24;4.00;99.90
2010;DHT22;1008;47.404;8.502;2022-12-07T01:12:50;4.00;99.90
2010;DHT22;1008;47.404;8.502;2022-12-07T01:15:18;4.10;99.90
2010;DHT22;1008;47.404;8.502;2022-12-07T01:17:45;4.00;99.90
2010;DHT22;1008;47.404;8.502;2022-12-07T01:20:13;4.00;99.90
2010;DHT22;1008;47.404;8.502;2022-12-07T01:22:42;4.10;99.90
2010;DHT22;1008;47.404;8.502;2022-12-07T01:25:10;4.00;99.90
2010;DHT22;1008;47.404;8.502;2022-12-07T01:27:38;4.10;99.90
2010;DHT22;1008;47.404;8.502;2022-12-07T01:30:06;4.00;99.90
2010;DHT22;1008;47.404;8.502;2022-12-07T01:32:34;4.10;99.90
2010;DHT22;1008;47.404;8.502;2022-12-07T01:35:01;4.10;99.90
2010;DHT22;1008;47.404;8.502;2022-12-07T01:37:28;4.10;99.90
2010;DHT22;1008;47.404;8.502;2022-12-07T01:39:59;4.10;99.90
2010;DHT22;1008;47.404;8.502;2022-12-07T01:42:26;4.10;99.90
2010;DHT22;1008;47.404;8.502;2022-12-07T01:48:14;4.20;99.90
2010;DHT22;1008;47.404;8.502;2022-12-07T01:50:43;4.20;99.90
2010;DHT22;1008;47.404;8.502;2022-12-07T01:53:10;4.20;99.90
2010;DHT22;1008;47.404;8.502;2022-12-07T01:55:40;4.20;99.90
2010;DHT22;1008;47.404;8.502;2022-12-07T01:58:09;4.10;99.90
2010;DHT22;1008;47.404;8.502;2022-12-07T02:00:36;4.00;99.90
2010;DHT22;1008;47.404;8.502;2022-12-07T02:03:07;4.10;99.90
2010;DHT22;1008;47.404;8.502;2022-12-07T02:05:38;4.00;99.90
2010;DHT22;1008;47.404;8.502;2022-12-07T02:08:05;4.00;99.90
2010;DHT22;1008;47.404;8.502;2022-12-07T02:10:32;4.00;99.90
2010;DHT22;1008;47.404;8.502;2022-12-07T02:13:04;3.90;99.90
2010;DHT22;1008;47.404;8.502;2022-12-07T02:15:41;3.80;99.90
2010;DHT22;1008;47.404;8.502;2022-12-07T02:18:16;3.90;99.90
2010;DHT22;1008;47.404;8.502;2022-12-07T02:20:54;3.90;99.90
2010;DHT22;1008;47.404;8.502;2022-12-07T02:23:41;3.80;99.90
2010;DHT22;1008;47.404;8.502;2022-12-07T02:29:22;3.80;99.90
2010;DHT22;1008;47.404;8.502;2022-12-07T02:31:56;3.90;99.90
2010;DHT22;1008;47.404;8.502;2022-12-07T02:34:31;4.00;99.90
2010;DHT22;1008;47.404;8.502;2022-12-07T02:37:02;3.90;99.90
2010;DHT22;1008;47.404;8.502;2022-12-07T02:39:34;3.80;99.90
2010;DHT22;1008;47.404;8.502;2022-12-07T02:42:09;3.90;99.90
2010;DHT22;1008;47.404;8.502;2022-12-07T02:44:39;4.00;99.90
2010;DHT22;1008;47.404;8.502;2022-12-07T02:47:10;4.10;99.90
2010;DHT22;1008;47.404;8.502;2022-12-07T02:49:39;4.10;99.90
2010;DHT22;1008;47.404;8.502;2022-12-07T02:52:06;4.10;99.90
2010;DHT22;1008;47.404;8.502;2022-12-07T02:54:33;4.10;99.90
2010;DHT22;1008;47.404;8.502;2022-12-07T02:57:07;4.10;99.90
2010;DHT22;1008;47.404;8.502;2022-12-07T02:59:45;4.10;99.90
2010;DHT22;1008;47.404;8.502;2022-12-07T03:02:23;4.10;99.90
2010;DHT22;1008;47.404;8.502;2022-12-07T03:05:01;4.20;99.90
2010;DHT22;1008;47.404;8.502;2022-12-07T03:07:33;4.10;99.90
2010;DHT22;1008;47.404;8.502;2022-12-07T03:10:07;4.00;99.90
2010;DHT22;1008;47.404;8.502;2022-12-07T03:12:41;4.10;99.90
2010;DHT22;1008;47.404;8.502;2022-12-07T03:15:15;4.20;99.90
2010;DHT22;1008;47.404;8.502;2022-12-07T03:17:45;4.10;99.90
2010;DHT22;1008;47.404;8.502;2022-12-07T03:20:15;4.20;99.90
2010;DHT22;1008;47.404;8.502;2022-12-07T03:22:44;4.20;99.90
2010;DHT22;1008;47.404;8.502;2022-12-07T03:25:15;4.20;99.90
2010;DHT22;1008;47.404;8.502;2022-12-07T03:27:45;4.20;99.90
2010;DHT22;1008;47.404;8.502;2022-12-07T03:30:17;4.30;99.90
2010;DHT22;1008;47.404;8.502;2022-12-07T03:32:52;4.30;99.90
2010;DHT22;1008;47.404;8.502;2022-12-07T03:35:23;4.30;99.90
2010;DHT22;1008;47.404;8.502;2022-12-07T03:37:54;4.30;99.90
2010;DHT22;1008;47.404;8.502;2022-12-07T03:40:26;4.30;99.90
2010;DHT22;1008;47.404;8.502;2022-12-07T03:42:55;4.20;99.90
2010;DHT22;1008;47.404;8.502;2022-12-07T03:45:32;4.00;99.90
2010;DHT22;1008;47.404;8.502;2022-12-07T03:48:08;4.00;99.90
2010;DHT22;1008;47.404;8.502;2022-12-07T03:50:41;3.90;99.90
2010;DHT22;1008;47.404;8.502;2022-12-07T03:53:12;4.00;99.90
2010;DHT22;1008;47.404;8.502;2022-12-07T03:55:42;4.00;99.90
2010;DHT22;1008;47.404;8.502;2022-12-07T03:58:12;3.90;99.90
2010;DHT22;1008;47.404;8.502;2022-12-07T04:00:43;3.90;99.90
2010;DHT22;1008;47.404;8.502;2022-12-07T04:03:10;3.80;99.90
2010;DHT22;1008;47.404;8.502;2022-12-07T04:05:38;3.90;99.90
2010;DHT22;1008;47.404;8.502;2022-12-07T04:08:05;4.10;99.90
2010;DHT22;1008;47.404;8.502;2022-12-07T04:10:32;4.10;99.90
2010;DHT22;1008;47.404;8.502;2022-12-07T04:12:59;4.20;99.90
2010;DHT22;1008;47.404;8.502;2022-12-07T04:15:26;4.20;99.90
2010;DHT22;1008;47.404;8.502;2022-12-07T04:17:54;4.10;99.90
2010;DHT22;1008;47.404;8.502;2022-12-07T04:20:21;4.10;99.90
2010;DHT22;1008;47.404;8.502;2022-12-07T04:22:48;4.00;99.90
2010;DHT22;1008;47.404;8.502;2022-12-07T04:25:15;4.00;99.90
2010;DHT22;1008;47.404;8.502;2022-12-07T04:27:41;4.00;99.90
2010;DHT22;1008;47.404;8.502;2022-12-07T04:30:09;4.10;99.90
2010;DHT22;1008;47.404;8.502;2022-12-07T04:32:36;4.20;99.90
2010;DHT22;1008;47.404;8.502;2022-12-07T04:35:05;4.00;99.90
2010;DHT22;1008;47.404;8.502;2022-12-07T04:37:32;4.00;99.90
2010;DHT22;1008;47.404;8.502;2022-12-07T04:39:58;3.90;99.90
2010;DHT22;1008;47.404;8.502;2022-12-07T04:42:25;4.00;99.90
2010;DHT22;1008;47.404;8.502;2022-12-07T04:44:52;4.00;99.90
2010;DHT22;1008;47.404;8.502;2022-12-07T04:47:20;4.00;99.90
2010;DHT22;1008;47.404;8.502;2022-12-07T04:49:47;4.00;99.90
2010;DHT22;1008;47.404;8.502;2022-12-07T04:52:15;3.90;99.90
2010;DHT22;1008;47.404;8.502;2022-12-07T04:54:42;4.00;99.90
2010;DHT22;1008;47.404;8.502;2022-12-07T04:57:08;4.00;99.90
2010;DHT22;1008;47.404;8.502;2022-12-07T04:59:35;4.10;99.90
2010;DHT22;1008;47.404;8.502;2022-12-07T05:02:02;4.10;99.90
2010;DHT22;1008;47.404;8.502;2022-12-07T05:04:29;4.10;99.90
2010;DHT22;1008;47.404;8.502;2022-12-07T05:06:55;4.10;99.90
2010;DHT22;1008;47.404;8.502;2022-12-07T05:09:23;4.10;99.90
2010;DHT22;1008;47.404;8.502;2022-12-07T05:11:50;4.00;99.90
2010;DHT22;1008;47.404;8.502;2022-12-07T05:14:19;4.00;99.90
2010;DHT22;1008;47.404;8.502;2022-12-07T05:16:47;4.10;99.90
2010;DHT22;1008;47.404;8.502;2022-12-07T05:19:15;4.00;99.90
2010;DHT22;1008;47.404;8.502;2022-12-07T05:21:42;4.20;99.90
2010;DHT22;1008;47.404;8.502;2022-12-07T05:24:12;4.00;99.90
2010;DHT22;1008;47.404;8.502;2022-12-07T05:26:40;4.10;99.90
2010;DHT22;1008;47.404;8.502;2022-12-07T05:29:07;3.90;99.90
2010;DHT22;1008;47.404;8.502;2022-12-07T05:31:34;4.10;99.90
2010;DHT22;1008;47.404;8.502;2022-12-07T05:34:01;4.00;99.90
2010;DHT22;1008;47.404;8.502;2022-12-07T05:36:28;4.00;99.90
2010;DHT22;1008;47.404;8.502;2022-12-07T05:38:56;4.20;99.90
2010;DHT22;1008;47.404;8.502;2022-12-07T05:41:23;4.10;99.90
2010;DHT22;1008;47.404;8.502;2022-12-07T05:44:09;4.20;99.90
2010;DHT22;1008;47.404;8.502;2022-12-07T05:46:36;4.20;99.90
2010;DHT22;1008;47.404;8.502;2022-12-07T05:49:02;4.30;99.90
2010;DHT22;1008;47.404;8.502;2022-12-07T05:51:29;4.20;99.90
2010;DHT22;1008;47.404;8.502;2022-12-07T05:53:56;4.10;99.90
2010;DHT22;1008;47.404;8.502;2022-12-07T05:56:23;4.20;99.90
2010;DHT22;1008;47.404;8.502;2022-12-07T05:58:49;4.30;99.90
2010;DHT22;1008;47.404;8.502;2022-12-07T06:01:35;4.30;99.90
2010;DHT22;1008;47.404;8.502;2022-12-07T06:04:02;4.30;99.90
2010;DHT22;1008;47.404;8.502;2022-12-07T06:06:28;4.30;99.90
2010;DHT22;1008;47.404;8.502;2022-12-07T06:08:55;4.30;99.90
2010;DHT22;1008;47.404;8.502;2022-12-07T06:11:22;4.20;99.90
2010;DHT22;1008;47.404;8.502;2022-12-07T06:14:06;4.10;99.90
2010;DHT22;1008;47.404;8.502;2022-12-07T06:16:34;4.20;99.90
2010;DHT22;1008;47.404;8.502;2022-12-07T06:19:01;4.20;99.90
2010;DHT22;1008;47.404;8.502;2022-12-07T06:21:28;4.20;99.90
2010;DHT22;1008;47.404;8.502;2022-12-07T06:23:54;4.30;99.90
2010;DHT22;1008;47.404;8.502;2022-12-07T06:26:21;4.30;99.90
2010;DHT22;1008;47.404;8.502;2022-12-07T06:28:48;4.10;99.90
2010;DHT22;1008;47.404;8.502;2022-12-07T06:31:15;4.10;99.90
2010;DHT22;1008;47.404;8.502;2022-12-07T06:33:43;4.00;99.90
2010;DHT22;1008;47.404;8.502;2022-12-07T06:36:10;4.10;99.90
2010;DHT22;1008;47.404;8.502;2022-12-07T06:38:37;4.20;99.90
2010;DHT22;1008;47.404;8.502;2022-12-07T06:41:04;4.30;99.90
2010;DHT22;1008;47.404;8.502;2022-12-07T06:43:32;4.30;99.90
2010;DHT22;1008;47.404;8.502;2022-12-07T06:45:58;4.30;99.90
2010;DHT22;1008;47.404;8.502;2022-12-07T06:48:25;4.20;99.90
2010;DHT22;1008;47.404;8.502;2022-12-07T06:50:53;4.20;99.90
2010;DHT22;1008;47.404;8.502;2022-12-07T06:53:20;4.20;99.90
2010;DHT22;1008;47.404;8.502;2022-12-07T06:55:47;4.30;99.90
2010;DHT22;1008;47.404;8.502;2022-12-07T06:58:13;4.20;99.90
2010;DHT22;1008;47.404;8.502;2022-12-07T07:00:40;4.30;99.90
2010;DHT22;1008;47.404;8.502;2022-12-07T07:03:07;4.20;99.90
2010;DHT22;1008;47.404;8.502;2022-12-07T07:05:34;4.10;99.90
2010;DHT22;1008;47.404;8.502;2022-12-07T07:08:02;4.20;99.90
2010;DHT22;1008;47.404;8.502;2022-12-07T07:10:29;4.30;99.90
2010;DHT22;1008;47.404;8.502;2022-12-07T07:12:56;4.20;99.90
2010;DHT22;1008;47.404;8.502;2022-12-07T07:15:23;3.90;99.90
2010;DHT22;1008;47.404;8.502;2022-12-07T07:17:49;3.90;99.90
2010;DHT22;1008;47.404;8.502;2022-12-07T07:20:16;3.90;99.90
2010;DHT22;1008;47.404;8.502;2022-12-07T07:22:43;3.90;99.90
2010;DHT22;1008;47.404;8.502;2022-12-07T07:25:11;4.10;99.90
2010;DHT22;1008;47.404;8.502;2022-12-07T07:27:38;4.20;99.90
2010;DHT22;1008;47.404;8.502;2022-12-07T07:30:05;4.00;99.90
2010;DHT22;1008;47.404;8.502;2022-12-07T07:32:32;4.10;99.90
2010;DHT22;1008;47.404;8.502;2022-12-07T07:34:59;4.00;99.90
2010;DHT22;1008;47.404;8.502;2022-12-07T07:37:26;4.10;99.90
2010;DHT22;1008;47.404;8.502;2022-12-07T07:39:53;4.00;99.90
2010;DHT22;1008;47.404;8.502;2022-12-07T07:42:21;4.10;99.90
2010;DHT22;1008;47.404;8.502;2022-12-07T07:44:48;4.00;99.90
2010;DHT22;1008;47.404;8.502;2022-12-07T07:47:15;4.10;99.90
2010;DHT22;1008;47.404;8.502;2022-12-07T07:49:41;4.10;99.90
2010;DHT22;1008;47.404;8.502;2022-12-07T07:52:08;3.80;99.90
2010;DHT22;1008;47.404;8.502;2022-12-07T07:54:35;3.90;99.90
2010;DHT22;1008;47.404;8.502;2022-12-07T07:57:02;4.00;99.90
2010;DHT22;1008;47.404;8.502;2022-12-07T07:59:30;4.00;99.90
2010;DHT22;1008;47.404;8.502;2022-12-07T08:01:57;4.00;99.90
2010;DHT22;1008;47.404;8.502;2022-12-07T08:04:23;4.00;99.90
2010;DHT22;1008;47.404;8.502;2022-12-07T08:06:50;3.90;99.90
2010;DHT22;1008;47.404;8.502;2022-12-07T08:09:17;4.00;99.90
2010;DHT22;1008;47.404;8.502;2022-12-07T08:11:44;3.80;99.90
2010;DHT22;1008;47.404;8.502;2022-12-07T08:14:11;3.80;99.90
2010;DHT22;1008;47.404;8.502;2022-12-07T08:16:39;3.90;99.90
2010;DHT22;1008;47.404;8.502;2022-12-07T08:19:05;3.90;99.90
2010;DHT22;1008;47.404;8.502;2022-12-07T08:21:32;3.90;99.90
2010;DHT22;1008;47.404;8.502;2022-12-07T08:23:59;3.90;99.90
2010;DHT22;1008;47.404;8.502;2022-12-07T08:26:26;3.90;99.90
2010;DHT22;1008;47.404;8.502;2022-12-07T08:28:53;3.80;99.90
2010;DHT22;1008;47.404;8.502;2022-12-07T08:31:20;3.90;99.90
2010;DHT22;1008;47.404;8.502;2022-12-07T08:33:48;3.80;99.90
2010;DHT22;1008;47.404;8.502;2022-12-07T08:36:15;3.90;99.90
2010;DHT22;1008;47.404;8.502;2022-12-07T08:38:43;3.80;99.90
2010;DHT22;1008;47.404;8.502;2022-12-07T08:41:09;3.80;99.90
2010;DHT22;1008;47.404;8.502;2022-12-07T08:43:36;3.90;99.90
2010;DHT22;1008;47.404;8.502;2022-12-07T08:46:09;3.90;99.90
2010;DHT22;1008;47.404;8.502;2022-12-07T08:48:43;4.00;99.90
2010;DHT22;1008;47.404;8.502;2022-12-07T08:51:12;4.00;99.90
2010;DHT22;1008;47.404;8.502;2022-12-07T08:53:40;4.00;99.90
2010;DHT22;1008;47.404;8.502;2022-12-07T08:56:07;4.00;99.90
2010;DHT22;1008;47.404;8.502;2022-12-07T08:58:35;3.90;99.90
2010;DHT22;1008;47.404;8.502;2022-12-07T09:01:02;3.80;99.90
2010;DHT22;1008;47.404;8.502;2022-12-07T09:03:29;3.90;99.90
2010;DHT22;1008;47.404;8.502;2022-12-07T09:05:56;4.10;99.90
2010;DHT22;1008;47.404;8.502;2022-12-07T09:08:28;4.00;99.90
2010;DHT22;1008;47.404;8.502;2022-12-07T09:10:56;4.00;99.90
2010;DHT22;1008;47.404;8.502;2022-12-07T09:13:23;4.10;99.90
2010;DHT22;1008;47.404;8.502;2022-12-07T09:15:49;4.00;99.90
2010;DHT22;1008;47.404;8.502;2022-12-07T09:18:16;4.00;99.90
2010;DHT22;1008;47.404;8.502;2022-12-07T09:20:43;4.00;99.90
2010;DHT22;1008;47.404;8.502;2022-12-07T09:23:10;4.00;99.90
2010;DHT22;1008;47.404;8.502;2022-12-07T09:25:38;4.10;99.90
2010;DHT22;1008;47.404;8.502;2022-12-07T09:28:05;4.10;99.90
2010;DHT22;1008;47.404;8.502;2022-12-07T09:30:31;4.10;99.90
2010;DHT22;1008;47.404;8.502;2022-12-07T09:32:58;4.10;99.90
2010;DHT22;1008;47.404;8.502;2022-12-07T09:35:25;4.10;99.90
2010;DHT22;1008;47.404;8.502;2022-12-07T09:37:52;4.10;99.90
2010;DHT22;1008;47.404;8.502;2022-12-07T09:40:20;4.20;99.90
2010;DHT22;1008;47.404;8.502;2022-12-07T09:42:51;4.30;99.90
2010;DHT22;1008;47.404;8.502;2022-12-07T09:45:23;4.20;99.90
2010;DHT22;1008;47.404;8.502;2022-12-07T09:47:50;4.20;99.90
2010;DHT22;1008;47.404;8.502;2022-12-07T09:50:20;4.30;99.90
2010;DHT22;1008;47.404;8.502;2022-12-07T09:52:48;4.10;99.90
2010;DHT22;1008;47.404;8.502;2022-12-07T09:55:21;4.20;99.90
2010;DHT22;1008;47.404;8.502;2022-12-07T09:57:52;4.00;99.90
2010;DHT22;1008;47.404;8.502;2022-12-07T10:00:21;4.20;99.90
2010;DHT22;1008;47.404;8.502;2022-12-07T10:02:50;4.30;99.90
2010;DHT22;1008;47.404;8.502;2022-12-07T10:05:24;4.40;99.90
2010;DHT22;1008;47.404;8.502;2022-12-07T10:07:52;4.30;99.90
2010;DHT22;1008;47.404;8.502;2022-12-07T10:10:23;4.30;99.90
2010;DHT22;1008;47.404;8.502;2022-12-07T10:12:58;4.50;99.90
2010;DHT22;1008;47.404;8.502;2022-12-07T10:15:43;4.50;99.90
2010;DHT22;1008;47.404;8.502;2022-12-07T10:18:32;4.50;99.90
2010;DHT22;1008;47.404;8.502;2022-12-07T10:21:04;4.50;99.90
2010;DHT22;1008;47.404;8.502;2022-12-07T10:23:33;4.50;99.90
2010;DHT22;1008;47.404;8.502;2022-12-07T10:26:19;4.50;99.90
2010;DHT22;1008;47.404;8.502;2022-12-07T10:28:48;4.60;99.90
2010;DHT22;1008;47.404;8.502;2022-12-07T10:31:17;4.30;99.90
2010;DHT22;1008;47.404;8.502;2022-12-07T10:33:50;4.30;99.90
2010;DHT22;1008;47.404;8.502;2022-12-07T10:36:21;4.40;99.90
2010;DHT22;1008;47.404;8.502;2022-12-07T10:38:51;4.50;99.90
2010;DHT22;1008;47.404;8.502;2022-12-07T10:41:18;4.40;99.90
2010;DHT22;1008;47.404;8.502;2022-12-07T10:43:52;4.50;99.90
2010;DHT22;1008;47.404;8.502;2022-12-07T10:49:48;4.80;99.90
2010;DHT22;1008;47.404;8.502;2022-12-07T10:52:29;5.00;99.90
2010;DHT22;1008;47.404;8.502;2022-12-07T10:55:13;5.00;99.90
2010;DHT22;1008;47.404;8.502;2022-12-07T10:57:49;5.00;99.90
2010;DHT22;1008;47.404;8.502;2022-12-07T11:00:21;4.90;99.90
2010;DHT22;1008;47.404;8.502;2022-12-07T11:03:11;4.80;99.90
2010;DHT22;1008;47.404;8.502;2022-12-07T11:05:45;4.80;99.90
2010;DHT22;1008;47.404;8.502;2022-12-07T11:08:22;4.90;99.90
2010;DHT22;1008;47.404;8.502;2022-12-07T11:10:55;4.80;99.90
2010;DHT22;1008;47.404;8.502;2022-12-07T11:13:33;5.00;99.90
2010;DHT22;1008;47.404;8.502;2022-12-07T11:16:24;5.10;99.90
2010;DHT22;1008;47.404;8.502;2022-12-07T11:19:09;5.10;99.90
2010;DHT22;1008;47.404;8.502;2022-12-07T11:21:44;5.20;99.90
2010;DHT22;1008;47.404;8.502;2022-12-07T11:24:15;5.20;99.90
2010;DHT22;1008;47.404;8.502;2022-12-07T11:26:55;5.40;99.90
2010;DHT22;1008;47.404;8.502;2022-12-07T11:32:23;5.50;99.90
2010;DHT22;1008;47.404;8.502;2022-12-07T11:35:02;5.30;99.90
2010;DHT22;1008;47.404;8.502;2022-12-07T11:37:34;5.40;99.90
2010;DHT22;1008;47.404;8.502;2022-12-07T11:40:04;5.60;99.90
2010;DHT22;1008;47.404;8.502;2022-12-07T11:42:37;5.50;99.90
2010;DHT22;1008;47.404;8.502;2022-12-07T11:45:14;5.40;99.90
2010;DHT22;1008;47.404;8.502;2022-12-07T11:47:46;5.50;99.90
2010;DHT22;1008;47.404;8.502;2022-12-07T11:50:23;5.50;99.90
2010;DHT22;1008;47.404;8.502;2022-12-07T11:52:54;5.40;99.90
2010;DHT22;1008;47.404;8.502;2022-12-07T11:55:27;5.40;99.90
2010;DHT22;1008;47.404;8.502;2022-12-07T11:58:02;5.40;99.90
2010;DHT22;1008;47.404;8.502;2022-12-07T12:00:29;5.40;99.90
2010;DHT22;1008;47.404;8.502;2022-12-07T12:03:01;5.40;99.90
2010;DHT22;1008;47.404;8.502;2022-12-07T12:05:30;5.40;99.90
2010;DHT22;1008;47.404;8.502;2022-12-07T12:08:03;5.20;99.90
2010;DHT22;1008;47.404;8.502;2022-12-07T12:10:49;5.30;99.90
2010;DHT22;1008;47.404;8.502;2022-12-07T12:13:42;5.50;99.90
2010;DHT22;1008;47.404;8.502;2022-12-07T12:16:30;5.60;99.90
2010;DHT22;1008;47.404;8.502;2022-12-07T12:19:16;5.60;99.90
2010;DHT22;1008;47.404;8.502;2022-12-07T12:21:47;5.70;99.90
2010;DHT22;1008;47.404;8.502;2022-12-07T12:24:18;5.70;99.90
2010;DHT22;1008;47.404;8.502;2022-12-07T12:26:50;5.70;99.90
2010;DHT22;1008;47.404;8.502;2022-12-07T12:29:21;5.70;99.90
2010;DHT22;1008;47.404;8.502;2022-12-07T12:32:05;5.80;99.90
2010;DHT22;1008;47.404;8.502;2022-12-07T12:34:40;6.00;99.90
2010;DHT22;1008;47.404;8.502;2022-12-07T12:37:38;6.00;99.90
2010;DHT22;1008;47.404;8.502;2022-12-07T12:40:37;5.80;99.90
2010;DHT22;1008;47.404;8.502;2022-12-07T12:46:51;5.90;99.90
2010;DHT22;1008;47.404;8.502;2022-12-07T12:49:37;6.00;99.90
2010;DHT22;1008;47.404;8.502;2022-12-07T12:58:32;6.00;99.90
2010;DHT22;1008;47.404;8.502;2022-12-07T13:04:18;6.00;99.90
2010;DHT22;1008;47.404;8.502;2022-12-07T13:06:49;6.20;99.90
2010;DHT22;1008;47.404;8.502;2022-12-07T13:09:20;6.30;99.90
2010;DHT22;1008;47.404;8.502;2022-12-07T13:11:49;6.30;99.90
2010;DHT22;1008;47.404;8.502;2022-12-07T13:14:39;6.20;99.90
2010;DHT22;1008;47.404;8.502;2022-12-07T13:17:08;6.40;99.90
2010;DHT22;1008;47.404;8.502;2022-12-07T13:19:59;6.30;99.90
2010;DHT22;1008;47.404;8.502;2022-12-07T13:22:50;6.30;99.90
2010;DHT22;1008;47.404;8.502;2022-12-07T13:25:29;6.30;99.90
2010;DHT22;1008;47.404;8.502;2022-12-07T13:28:00;6.20;99.90
2010;DHT22;1008;47.404;8.502;2022-12-07T13:30:28;6.10;99.90
2010;DHT22;1008;47.404;8.502;2022-12-07T13:32:58;6.20;99.90
2010;DHT22;1008;47.404;8.502;2022-12-07T13:35:33;6.20;99.90
2010;DHT22;1008;47.404;8.502;2022-12-07T13:38:04;6.30;99.90
2010;DHT22;1008;47.404;8.502;2022-12-07T13:40:32;6.30;99.90
2010;DHT22;1008;47.404;8.502;2022-12-07T13:43:00;6.30;99.90
2010;DHT22;1008;47.404;8.502;2022-12-07T13:45:28;6.10;99.90
2010;DHT22;1008;47.404;8.502;2022-12-07T13:48:14;6.10;99.90
2010;DHT22;1008;47.404;8.502;2022-12-07T13:50:42;6.00;99.90
2010;DHT22;1008;47.404;8.502;2022-12-07T13:53:15;6.10;99.90
2010;DHT22;1008;47.404;8.502;2022-12-07T13:55:45;6.10;99.90
2010;DHT22;1008;47.404;8.502;2022-12-07T13:58:12;6.00;99.90
2010;DHT22;1008;47.404;8.502;2022-12-07T14:00:40;5.90;99.90
2010;DHT22;1008;47.404;8.502;2022-12-07T14:03:26;6.00;99.90
2010;DHT22;1008;47.404;8.502;2022-12-07T14:06:05;5.90;99.90
2010;DHT22;1008;47.404;8.502;2022-12-07T14:08:34;5.80;99.90
2010;DHT22;1008;47.404;8.502;2022-12-07T14:11:01;5.90;99.90
2010;DHT22;1008;47.404;8.502;2022-12-07T14:13:31;5.90;99.90
2010;DHT22;1008;47.404;8.502;2022-12-07T14:15:59;6.00;99.90
2010;DHT22;1008;47.404;8.502;2022-12-07T14:18:27;5.90;99.90
2010;DHT22;1008;47.404;8.502;2022-12-07T14:21:03;6.00;99.90
2010;DHT22;1008;47.404;8.502;2022-12-07T14:23:30;5.90;99.90
2010;DHT22;1008;47.404;8.502;2022-12-07T14:26:07;5.80;99.90
2010;DHT22;1008;47.404;8.502;2022-12-07T14:28:36;6.00;99.90
2010;DHT22;1008;47.404;8.502;2022-12-07T14:31:10;5.90;99.90
2010;DHT22;1008;47.404;8.502;2022-12-07T14:33:38;6.10;99.90
2010;DHT22;1008;47.404;8.502;2022-12-07T14:36:05;6.40;99.90
2010;DHT22;1008;47.404;8.502;2022-12-07T14:38:32;6.20;99.90
2010;DHT22;1008;47.404;8.502;2022-12-07T14:40:58;5.90;99.90
2010;DHT22;1008;47.404;8.502;2022-12-07T14:43:47;6.00;99.90
2010;DHT22;1008;47.404;8.502;2022-12-07T14:46:13;6.20;99.90
2010;DHT22;1008;47.404;8.502;2022-12-07T14:48:40;6.10;99.90
2010;DHT22;1008;47.404;8.502;2022-12-07T14:51:08;6.10;99.90
2010;DHT22;1008;47.404;8.502;2022-12-07T14:53:43;6.10;99.90
2010;DHT22;1008;47.404;8.502;2022-12-07T14:56:11;6.00;99.90
2010;DHT22;1008;47.404;8.502;2022-12-07T14:58:40;6.00;99.90
2010;DHT22;1008;47.404;8.502;2022-12-07T15:01:08;5.90;99.90
2010;DHT22;1008;47.404;8.502;2022-12-07T15:03:35;5.90;99.90
2010;DHT22;1008;47.404;8.502;2022-12-07T15:06:04;5.90;99.90
2010;DHT22;1008;47.404;8.502;2022-12-07T15:08:31;5.80;99.90
2010;DHT22;1008;47.404;8.502;2022-12-07T15:10:58;5.80;99.90
2010;DHT22;1008;47.404;8.502;2022-12-07T15:13:25;5.80;99.90
2010;DHT22;1008;47.404;8.502;2022-12-07T15:16:13;5.70;99.90
2010;DHT22;1008;47.404;8.502;2022-12-07T15:18:42;5.70;99.90
2010;DHT22;1008;47.404;8.502;2022-12-07T15:21:12;5.70;99.90
2010;DHT22;1008;47.404;8.502;2022-12-07T15:23:40;5.70;99.90
2010;DHT22;1008;47.404;8.502;2022-12-07T15:26:07;5.70;99.90
2010;DHT22;1008;47.404;8.502;2022-12-07T15:28:36;5.70;99.90
2010;DHT22;1008;47.404;8.502;2022-12-07T15:31:03;5.80;99.90
2010;DHT22;1008;47.404;8.502;2022-12-07T15:33:31;5.60;99.90
2010;DHT22;1008;47.404;8.502;2022-12-07T15:35:59;5.50;99.90
2010;DHT22;1008;47.404;8.502;2022-12-07T15:38:26;5.40;99.90
2010;DHT22;1008;47.404;8.502;2022-12-07T15:40:54;5.60;99.90
2010;DHT22;1008;47.404;8.502;2022-12-07T15:43:20;5.80;99.90
2010;DHT22;1008;47.404;8.502;2022-12-07T15:46:05;5.80;99.90
2010;DHT22;1008;47.404;8.502;2022-12-07T15:48:33;5.70;99.90
2010;DHT22;1008;47.404;8.502;2022-12-07T15:51:03;5.70;99.90
2010;DHT22;1008;47.404;8.502;2022-12-07T15:53:29;5.60;99.90
2010;DHT22;1008;47.404;8.502;2022-12-07T15:55:56;5.60;99.90
2010;DHT22;1008;47.404;8.502;2022-12-07T15:58:23;5.40;99.90
2010;DHT22;1008;47.404;8.502;2022-12-07T16:00:50;5.40;99.90
2010;DHT22;1008;47.404;8.502;2022-12-07T16:03:16;5.30;99.90
2010;DHT22;1008;47.404;8.502;2022-12-07T16:05:49;5.50;99.90
2010;DHT22;1008;47.404;8.502;2022-12-07T16:08:16;5.50;99.90
2010;DHT22;1008;47.404;8.502;2022-12-07T16:10:43;5.40;99.90
2010;DHT22;1008;47.404;8.502;2022-12-07T16:13:10;5.30;99.90
2010;DHT22;1008;47.404;8.502;2022-12-07T16:15:38;5.30;99.90
2010;DHT22;1008;47.404;8.502;2022-12-07T16:18:04;5.20;99.90
2010;DHT22;1008;47.404;8.502;2022-12-07T16:20:31;5.30;99.90
2010;DHT22;1008;47.404;8.502;2022-12-07T16:22:59;4.90;99.90
2010;DHT22;1008;47.404;8.502;2022-12-07T16:25:27;5.00;99.90
2010;DHT22;1008;47.404;8.502;2022-12-07T16:27:54;4.80;99.90
2010;DHT22;1008;47.404;8.502;2022-12-07T16:30:20;5.10;99.90
2010;DHT22;1008;47.404;8.502;2022-12-07T16:32:47;5.20;99.90
2010;DHT22;1008;47.404;8.502;2022-12-07T16:35:14;5.20;99.90
2010;DHT22;1008;47.404;8.502;2022-12-07T16:37:42;5.20;99.90
2010;DHT22;1008;47.404;8.502;2022-12-07T16:40:11;5.20;99.90
2010;DHT22;1008;47.404;8.502;2022-12-07T16:42:38;5.00;99.90
2010;DHT22;1008;47.404;8.502;2022-12-07T16:45:06;5.00;99.90
2010;DHT22;1008;47.404;8.502;2022-12-07T16:47:32;5.00;99.90
2010;DHT22;1008;47.404;8.502;2022-12-07T16:49:59;4.90;99.90
2010;DHT22;1008;47.404;8.502;2022-12-07T16:52:26;4.90;99.90
2010;DHT22;1008;47.404;8.502;2022-12-07T16:54:52;4.80;99.90
2010;DHT22;1008;47.404;8.502;2022-12-07T16:57:20;4.70;99.90
2010;DHT22;1008;47.404;8.502;2022-12-07T16:59:47;4.70;99.90
2010;DHT22;1008;47.404;8.502;2022-12-07T17:02:14;4.70;99.90